Time;durP1;ratioP1;P1;durP2;ratioP2;P2;SDS_P1;SDS_P2;PMS_P1;PMS_P2;Temp;Humidity;BMP_temperature;BMP_pressure;BME280_temperature;BME280_humidity;BME280_pressure;Samples;Min_cycle;Max_cycle;Signal;HPM_P1;HPM_P2
2021/10/12 00:01:27;;;;;;;;;;;;;;;12.77;62.80;101500.28;4959407;28;98013;-84
2021/10/12 00:03:54;;;;;;;;;;;;;;;13.10;62.37;101503.59;4960400;28;100988;-82
2021/10/12 00:06:20;;;;;;;;;;;;;;;13.18;62.37;101498.94;4958748;28;97064;-83
2021/10/12 00:08:48;;;;;;;;;;;;;;;13.11;62.43;101503.53;4960464;28;96829;-82
2021/10/12 00:11:15;;;;;;;;;;;;;;;13.13;62.63;101504.38;4953725;28;100955;-82
2021/10/12 00:13:41;;;;;;;;;;;;;;;13.34;61.94;101499.25;4966515;28;100686;-83
2021/10/12 00:16:07;;;;;;;;;;;;;;;13.75;60.14;101489.81;4969880;28;96809;-82
2021/10/12 00:18:34;;;;;;;;;;;;;;;13.19;62.05;101495.38;4955873;28;96885;-83
2021/10/12 00:21:00;;;;;;;;;;;;;;;12.88;63.15;101492.81;4976587;28;100703;-83
2021/10/12 00:23:26;;;;;;;;;;;;;;;13.35;61.74;101493.03;4960106;28;96331;-83
2021/10/12 00:25:54;;;;;;;;;;;;;;;13.69;60.53;101496.22;4986792;28;96555;-83
2021/10/12 00:28:21;;;;;;;;;;;;;;;13.70;60.20;101492.63;4977934;28;96035;-83
2021/10/12 00:30:47;;;;;;;;;;;;;;;13.75;59.75;101481.84;4978367;28;97666;-83
2021/10/12 00:33:13;;;;;;;;;;;;;;;13.83;59.81;101480.63;4976732;28;98045;-81
2021/10/12 00:35:39;;;;;;;;;;;;;;;13.68;59.98;101482.97;4979969;28;96286;-82
2021/10/12 00:38:06;;;;;;;;;;;;;;;13.75;59.82;101480.06;4981621;28;96704;-82
2021/10/12 00:40:32;;;;;;;;;;;;;;;13.67;60.21;101468.84;4977624;28;98002;-82
2021/10/12 00:43:00;;;;;;;;;;;;;;;13.79;59.66;101465.72;4977653;28;99856;-83
2021/10/12 00:45:27;;;;;;;;;;;;;;;13.41;60.75;101471.56;4977998;28;96152;-83
2021/10/12 00:47:57;;;;;;;;;;;;;;;13.28;61.75;101470.25;4978643;28;96400;-81
2021/10/12 00:50:23;;;;;;;;;;;;;;;13.25;61.64;101476.56;4976707;28;97873;-82
2021/10/12 00:52:49;;;;;;;;;;;;;;;12.98;62.64;101470.38;4975128;28;99315;-83
2021/10/12 00:55:16;;;;;;;;;;;;;;;13.60;60.29;101474.41;4968553;28;96753;-83
2021/10/12 00:57:42;;;;;;;;;;;;;;;13.57;60.25;101464.81;4965417;28;96719;-84
2021/10/12 01:00:11;;;;;;;;;;;;;;;13.78;59.62;101456.03;4973852;28;97357;-83
2021/10/12 01:02:39;;;;;;;;;;;;;;;13.47;60.60;101461.59;4974573;28;98241;-82
2021/10/12 01:05:05;;;;;;;;;;;;;;;12.93;62.20;101463.50;4967020;28;96535;-82
2021/10/12 01:07:32;;;;;;;;;;;;;;;13.06;62.08;101459.53;4941189;28;96834;-82
2021/10/12 01:09:59;;;;;;;;;;;;;;;13.32;61.07;101461.28;4957477;28;99074;-83
2021/10/12 01:12:26;;;;;;;;;;;;;;;13.24;61.70;101453.59;4954696;28;98775;-83
2021/10/12 01:14:52;;;;;;;;;;;;;;;13.35;60.98;101446.13;4952960;28;97813;-83
2021/10/12 01:17:20;;;;;;;;;;;;;;;13.46;60.52;101448.38;4941156;28;96813;-83
2021/10/12 01:19:46;;;;;;;;;;;;;;;13.37;60.92;101441.63;4954156;28;99303;-86
2021/10/12 01:22:15;;;;;;;;;;;;;;;13.49;60.39;101437.66;4958405;28;99300;-85
2021/10/12 01:24:41;;;;;;;;;;;;;;;12.66;63.17;101442.31;4957815;28;96864;-85
2021/10/12 01:27:08;;;;;;;;;;;;;;;13.19;61.55;101431.66;4956033;28;96933;-85
2021/10/12 01:29:36;;;;;;;;;;;;;;;13.49;60.57;101419.94;4953604;28;96938;-85
2021/10/12 01:32:02;;;;;;;;;;;;;;;13.33;60.96;101423.19;4956662;28;99182;-85
2021/10/12 01:34:29;;;;;;;;;;;;;;;13.52;60.42;101416.31;4956527;28;96607;-84
2021/10/12 01:36:55;;;;;;;;;;;;;;;13.14;61.20;101420.31;4952437;28;97035;-86
2021/10/12 01:39:23;;;;;;;;;;;;;;;13.50;60.46;101418.16;4949060;28;97833;-86
2021/10/12 01:41:49;;;;;;;;;;;;;;;13.24;60.86;101407.63;4956596;28;101866;-85
2021/10/12 01:44:17;;;;;;;;;;;;;;;13.38;60.49;101410.63;4957127;28;97533;-86
2021/10/12 01:46:43;;;;;;;;;;;;;;;13.56;59.71;101402.84;4948086;28;96796;-87
2021/10/12 01:49:10;;;;;;;;;;;;;;;13.56;59.62;101402.84;4960863;28;96929;-86
2021/10/12 01:51:37;;;;;;;;;;;;;;;12.78;61.67;101401.22;4961918;28;96629;-85
2021/10/12 01:54:03;;;;;;;;;;;;;;;13.34;60.34;101403.69;4961122;28;97007;-84
2021/10/12 01:56:31;;;;;;;;;;;;;;;13.45;60.02;101397.09;4968400;28;96588;-84
2021/10/12 01:58:57;;;;;;;;;;;;;;;13.47;59.91;101394.34;4966425;28;97270;-84
2021/10/12 02:01:25;;;;;;;;;;;;;;;13.52;59.53;101384.44;4967216;28;101069;-82
2021/10/12 02:03:52;;;;;;;;;;;;;;;13.42;59.63;101383.91;4970658;28;96824;-84
2021/10/12 02:06:18;;;;;;;;;;;;;;;13.60;59.05;101377.03;4955545;28;96528;-84
2021/10/12 02:08:44;;;;;;;;;;;;;;;13.83;58.22;101382.34;4969414;28;98510;-84
2021/10/12 02:11:11;;;;;;;;;;;;;;;13.49;59.26;101374.81;4964441;28;98838;-84
2021/10/12 02:13:39;;;;;;;;;;;;;;;13.52;59.20;101374.66;4955089;28;96946;-83
2021/10/12 02:16:05;;;;;;;;;;;;;;;13.43;59.54;101375.03;4958524;28;96849;-84
2021/10/12 02:18:32;;;;;;;;;;;;;;;12.90;61.36;101363.66;4952595;28;101439;-85
2021/10/12 02:20:58;;;;;;;;;;;;;;;13.27;60.25;101362.38;4959440;28;100328;-85
2021/10/12 02:23:25;;;;;;;;;;;;;;;13.20;60.56;101358.22;4942807;28;97345;-84
2021/10/12 02:25:51;;;;;;;;;;;;;;;13.42;59.72;101343.22;4979320;28;96862;-84
2021/10/12 02:28:18;;;;;;;;;;;;;;;13.22;59.99;101345.75;4969878;28;98950;-83
2021/10/12 02:30:45;;;;;;;;;;;;;;;13.52;59.42;101349.94;4961164;28;98694;-82
2021/10/12 02:33:12;;;;;;;;;;;;;;;13.39;59.59;101349.50;4959238;28;96849;-82
2021/10/12 02:35:38;;;;;;;;;;;;;;;13.44;59.33;101338.72;4963078;28;96849;-84
2021/10/12 02:38:07;;;;;;;;;;;;;;;13.45;59.32;101337.81;4958948;28;99174;-84
2021/10/12 02:40:33;;;;;;;;;;;;;;;13.28;59.75;101333.13;4960130;28;98076;-83
2021/10/12 02:42:59;;;;;;;;;;;;;;;13.24;60.08;101330.66;4959512;28;97176;-85
2021/10/12 02:45:25;;;;;;;;;;;;;;;13.00;60.84;101321.75;4974453;28;97768;-84
2021/10/12 02:47:53;;;;;;;;;;;;;;;13.43;59.59;101321.94;4975549;28;97807;-83
2021/10/12 02:50:21;;;;;;;;;;;;;;;13.26;59.71;101323.50;4976520;28;97996;-82
2021/10/12 02:52:48;;;;;;;;;;;;;;;13.33;59.71;101320.53;4976756;28;96514;-83
2021/10/12 02:55:14;;;;;;;;;;;;;;;13.40;59.47;101324.69;4963761;28;96639;-83
2021/10/12 02:57:40;;;;;;;;;;;;;;;13.15;59.93;101322.09;4957424;28;97864;-83
2021/10/12 03:00:07;;;;;;;;;;;;;;;12.96;61.07;101331.63;4970573;28;97703;-81
2021/10/12 03:02:35;;;;;;;;;;;;;;;13.14;60.09;101335.41;4979900;28;96518;-83
2021/10/12 03:05:02;;;;;;;;;;;;;;;12.77;61.46;101335.84;4976255;28;96821;-82
2021/10/12 03:07:29;;;;;;;;;;;;;;;12.19;63.72;101329.88;4977475;28;97986;-81
2021/10/12 03:09:55;;;;;;;;;;;;;;;12.94;61.40;101325.50;4978152;28;97731;-82
2021/10/12 03:12:21;;;;;;;;;;;;;;;13.00;61.15;101313.78;4974631;28;96678;-82
2021/10/12 03:14:47;;;;;;;;;;;;;;;13.28;60.03;101319.00;4968557;28;98457;-83
2021/10/12 03:17:14;;;;;;;;;;;;;;;12.97;60.90;101309.47;4965521;28;98052;-83
2021/10/12 03:19:40;;;;;;;;;;;;;;;12.95;60.61;101311.31;4959475;28;98963;-82
2021/10/12 03:22:11;;;;;;;;;;;;;;;13.21;60.02;101304.22;4959481;28;96814;-82
2021/10/12 03:24:38;;;;;;;;;;;;;;;13.34;59.51;101311.66;4962365;28;96970;-84
2021/10/12 03:27:04;;;;;;;;;;;;;;;13.09;60.28;101298.41;4966550;28;100334;-84
2021/10/12 03:29:31;;;;;;;;;;;;;;;13.15;60.07;101295.56;4972283;28;99187;-84
2021/10/12 03:31:59;;;;;;;;;;;;;;;13.19;60.06;101284.84;4969113;28;96686;-84
2021/10/12 03:34:26;;;;;;;;;;;;;;;12.97;61.02;101285.59;4960452;28;96726;-83
2021/10/12 03:36:52;;;;;;;;;;;;;;;13.16;60.23;101278.72;4959244;28;98121;-84
2021/10/12 03:39:20;;;;;;;;;;;;;;;13.14;60.01;101269.94;4973817;28;98041;-84
2021/10/12 03:41:46;;;;;;;;;;;;;;;13.13;60.45;101270.00;4975822;28;96252;-83
2021/10/12 03:44:12;;;;;;;;;;;;;;;13.14;60.05;101274.38;4965353;28;96742;-82
2021/10/12 03:46:39;;;;;;;;;;;;;;;13.15;60.13;101263.72;4967237;28;99190;-84
2021/10/12 03:49:06;;;;;;;;;;;;;;;13.23;60.01;101259.91;4956844;28;98818;-83
2021/10/12 03:51:32;;;;;;;;;;;;;;;13.14;60.02;101256.69;4951721;28;96752;-83
2021/10/12 03:53:59;;;;;;;;;;;;;;;13.21;59.78;101259.09;4982630;28;96833;-82
2021/10/12 03:56:26;;;;;;;;;;;;;;;13.28;60.08;101252.63;4983529;28;97804;-82
2021/10/12 03:58:53;;;;;;;;;;;;;;;13.31;59.72;101245.44;4964331;28;100001;-82
2021/10/12 04:01:19;;;;;;;;;;;;;;;13.57;58.88;101249.72;4942986;28;96791;-83
2021/10/12 04:03:46;;;;;;;;;;;;;;;13.40;58.94;101245.06;4958949;28;96816;-83
2021/10/12 04:06:12;;;;;;;;;;;;;;;13.60;58.77;101238.97;4958233;28;99135;-83
2021/10/12 04:08:39;;;;;;;;;;;;;;;13.61;58.48;101239.81;4957946;28;98772;-83
2021/10/12 04:11:08;;;;;;;;;;;;;;;12.79;61.34;101238.56;4960925;28;96865;-83
2021/10/12 04:13:36;;;;;;;;;;;;;;;13.29;59.85;101235.78;4951426;28;96610;-82
2021/10/12 04:16:02;;;;;;;;;;;;;;;13.37;59.84;101233.72;4955739;28;99656;-83
2021/10/12 04:18:29;;;;;;;;;;;;;;;12.72;62.03;101231.75;4965596;28;99085;-83
2021/10/12 04:20:55;;;;;;;;;;;;;;;12.84;61.29;101233.94;4969344;28;96894;-83
2021/10/12 04:23:21;;;;;;;;;;;;;;;12.60;62.50;101233.03;4969526;28;97127;-83
2021/10/12 04:25:48;;;;;;;;;;;;;;;12.83;61.83;101239.28;4961518;28;97695;-84
2021/10/12 04:28:14;;;;;;;;;;;;;;;12.41;63.59;101228.44;4959520;28;97740;-84
2021/10/12 04:30:44;;;;;;;;;;;;;;;12.13;64.63;101226.78;4957971;28;96866;-81
2021/10/12 04:33:11;;;;;;;;;;;;;;;12.31;64.25;101223.47;4961532;28;96653;-85
2021/10/12 04:35:37;;;;;;;;;;;;;;;12.56;63.60;101214.66;4959158;28;98837;-85
2021/10/12 04:38:04;;;;;;;;;;;;;;;12.35;64.18;101210.97;4966299;28;99031;-85
2021/10/12 04:40:30;;;;;;;;;;;;;;;12.18;66.18;101216.00;4976929;28;96780;-81
2021/10/12 04:42:57;;;;;;;;;;;;;;;12.29;65.28;101212.06;4957410;28;96848;-83
2021/10/12 04:45:24;;;;;;;;;;;;;;;12.84;64.46;101212.72;4953168;28;97793;-80
2021/10/12 04:47:52;;;;;;;;;;;;;;;12.63;64.98;101200.25;4940713;28;97742;-83
2021/10/12 04:50:18;;;;;;;;;;;;;;;12.30;66.29;101207.63;4950579;28;96820;-83
2021/10/12 04:52:45;;;;;;;;;;;;;;;12.09;67.31;101214.53;4956559;28;96906;-82
2021/10/12 04:55:11;;;;;;;;;;;;;;;12.72;64.82;101202.56;4953181;28;98323;-81
2021/10/12 04:57:37;;;;;;;;;;;;;;;12.83;63.91;101194.19;4959300;28;98863;-83
2021/10/12 05:00:05;;;;;;;;;;;;;;;12.79;64.36;101190.81;4973399;28;96808;-84
2021/10/12 05:02:31;;;;;;;;;;;;;;;13.09;63.41;101184.34;4950158;28;96953;-80
2021/10/12 05:04:59;;;;;;;;;;;;;;;13.00;63.17;101170.53;4954959;28;98824;-82
2021/10/12 05:07:25;;;;;;;;;;;;;;;12.84;64.11;101151.72;4958036;28;99038;-83
2021/10/12 05:09:51;;;;;;;;;;;;;;;13.30;62.65;101139.34;4950613;28;97269;-83
2021/10/12 05:12:18;;;;;;;;;;;;;;;13.61;61.38;101139.78;4962773;28;98795;-80
2021/10/12 05:14:44;;;;;;;;;;;;;;;13.88;60.51;101137.75;4958241;28;99042;-81
2021/10/12 05:17:16;;;;;;;;;;;;;;;13.48;61.24;101123.50;4975769;28;99057;-82
2021/10/12 05:19:42;;;;;;;;;;;;;;;13.76;60.45;101107.28;4964097;28;96991;-82
2021/10/12 05:22:10;;;;;;;;;;;;;;;13.47;60.99;101094.38;4958833;28;96845;-82
2021/10/12 05:24:36;;;;;;;;;;;;;;;13.70;60.17;101109.34;4959586;28;97823;-81
2021/10/12 05:27:03;;;;;;;;;;;;;;;13.76;60.70;101119.69;4960994;28;101030;-81
2021/10/12 05:29:30;;;;;;;;;;;;;;;13.73;60.28;101127.78;4959954;28;96895;-82
2021/10/12 05:31:57;;;;;;;;;;;;;;;13.68;60.21;101129.78;4959710;28;96722;-82
2021/10/12 05:34:23;;;;;;;;;;;;;;;13.42;61.14;101128.22;4959083;28;99880;-81
2021/10/12 05:36:49;;;;;;;;;;;;;;;13.60;60.64;101119.47;4958961;28;99165;-81
2021/10/12 05:39:17;;;;;;;;;;;;;;;13.38;61.08;101116.00;4968748;28;98573;-81
2021/10/12 05:41:44;;;;;;;;;;;;;;;13.49;60.63;101117.28;4957905;28;96835;-80
2021/10/12 05:44:10;;;;;;;;;;;;;;;13.03;61.51;101123.56;4962758;28;97089;-81
2021/10/12 05:46:36;;;;;;;;;;;;;;;13.46;60.60;101129.78;4963978;28;99195;-80
2021/10/12 05:49:03;;;;;;;;;;;;;;;13.60;60.34;101130.09;4955097;28;97523;-79
2021/10/12 05:51:29;;;;;;;;;;;;;;;13.33;61.93;101134.75;4954608;28;96991;-80
2021/10/12 05:53:58;;;;;;;;;;;;;;;12.15;65.54;101137.50;4953050;28;99386;-79
2021/10/12 05:56:27;;;;;;;;;;;;;;;13.01;63.33;101132.47;4953481;28;98993;-79
2021/10/12 05:58:54;;;;;;;;;;;;;;;13.29;62.23;101129.63;4953690;28;96925;-80
2021/10/12 06:01:21;;;;;;;;;;;;;;;13.65;61.17;101130.78;4951156;28;97794;-79
2021/10/12 06:03:48;;;;;;;;;;;;;;;13.88;60.46;101128.00;4945463;28;98179;-79
2021/10/12 06:06:14;;;;;;;;;;;;;;;13.61;61.30;101123.00;4961376;28;97600;-79
2021/10/12 06:08:42;;;;;;;;;;;;;;;13.30;62.44;101126.06;4959002;28;96801;-81
2021/10/12 06:11:08;;;;;;;;;;;;;;;13.68;61.13;101121.81;4954713;28;97798;-80
2021/10/12 06:13:37;;;;;;;;;;;;;;;13.74;60.99;101125.06;4957071;28;100134;-80
2021/10/12 06:16:03;;;;;;;;;;;;;;;13.94;60.56;101119.75;4952658;28;100749;-80
2021/10/12 06:18:30;;;;;;;;;;;;;;;13.70;60.95;101123.47;4954845;28;97268;-80
2021/10/12 06:20:57;;;;;;;;;;;;;;;13.59;61.47;101123.03;4952632;28;97163;-79
2021/10/12 06:23:26;;;;;;;;;;;;;;;13.53;62.06;101126.81;4950113;28;97918;-80
2021/10/12 06:25:53;;;;;;;;;;;;;;;13.86;61.12;101123.66;4951166;28;101061;-80
2021/10/12 06:28:20;;;;;;;;;;;;;;;14.03;60.88;101120.31;4947744;28;97933;-79
2021/10/12 06:30:48;;;;;;;;;;;;;;;14.24;60.33;101117.53;4955269;28;96865;-80
2021/10/12 06:33:15;;;;;;;;;;;;;;;14.33;59.75;101121.59;4951192;28;98855;-81
2021/10/12 06:35:41;;;;;;;;;;;;;;;14.36;59.82;101121.47;4953863;28;98166;-80
2021/10/12 06:38:08;;;;;;;;;;;;;;;14.58;59.12;101126.69;4950839;28;96879;-81
2021/10/12 06:40:34;;;;;;;;;;;;;;;14.42;59.31;101129.19;4953467;28;97144;-81
2021/10/12 06:43:01;;;;;;;;;;;;;;;14.01;60.43;101135.44;4951790;28;99272;-80
2021/10/12 06:45:27;;;;;;;;;;;;;;;13.56;61.76;101125.84;4947267;28;98808;-78
2021/10/12 06:47:55;;;;;;;;;;;;;;;13.96;60.82;101120.56;4951646;28;96947;-80
2021/10/12 06:50:22;;;;;;;;;;;;;;;14.07;60.77;101119.22;4955115;28;97196;-80
2021/10/12 06:52:49;;;;;;;;;;;;;;;14.19;60.46;101114.22;4956982;28;101458;-80
2021/10/12 06:55:15;;;;;;;;;;;;;;;13.92;60.73;101113.66;4971908;28;99159;-79
2021/10/12 06:57:42;;;;;;;;;;;;;;;14.31;59.77;101118.13;4952534;28;96844;-79
2021/10/12 07:00:11;;;;;;;;;;;;;;;13.88;61.33;101127.13;4955187;28;97124;-80
2021/10/12 07:02:37;;;;;;;;;;;;;;;13.94;60.73;101121.56;4954224;28;99723;-81
2021/10/12 07:05:05;;;;;;;;;;;;;;;13.77;60.78;101119.63;4955996;28;98117;-80
2021/10/12 07:07:32;;;;;;;;;;;;;;;13.10;62.74;101127.69;4956336;28;96760;-80
2021/10/12 07:09:58;;;;;;;;;;;;;;;13.94;60.90;101122.41;4956002;28;96916;-80
2021/10/12 07:12:25;;;;;;;;;;;;;;;14.10;59.82;101121.75;4955698;28;98949;-80
2021/10/12 07:14:51;;;;;;;;;;;;;;;14.34;58.84;101125.97;4955461;28;99150;-80
2021/10/12 07:17:17;;;;;;;;;;;;;;;14.53;58.17;101126.91;4955216;28;97173;-79
2021/10/12 07:19:44;;;;;;;;;;;;;;;14.24;58.89;101124.69;4956286;28;96807;-78
2021/10/12 07:22:13;;;;;;;;;;;;;;;13.76;59.31;101117.91;4957103;28;98194;-79
2021/10/12 07:24:39;;;;;;;;;;;;;;;13.95;59.35;101121.50;4959173;28;98215;-79
2021/10/12 07:27:07;;;;;;;;;;;;;;;13.80;59.82;101119.50;4957900;28;96873;-79
2021/10/12 07:29:35;;;;;;;;;;;;;;;13.48;60.86;101115.53;4956669;28;97017;-79
2021/10/12 07:32:02;;;;;;;;;;;;;;;13.81;60.42;101123.88;4957269;28;101313;-82
2021/10/12 07:34:29;;;;;;;;;;;;;;;14.32;58.42;101123.38;4956753;28;97805;-81
2021/10/12 07:36:55;;;;;;;;;;;;;;;14.01;58.82;101122.16;4952282;28;97036;-80
2021/10/12 07:39:23;;;;;;;;;;;;;;;14.12;58.93;101117.22;4958684;28;97043;-80
2021/10/12 07:41:49;;;;;;;;;;;;;;;14.79;57.40;101131.00;4958196;28;99043;-80
2021/10/12 07:44:16;;;;;;;;;;;;;;;15.11;56.29;101122.38;4956744;28;97107;-81
2021/10/12 07:46:42;;;;;;;;;;;;;;;14.81;56.95;101128.28;4959532;28;97087;-81
2021/10/12 07:49:09;;;;;;;;;;;;;;;14.43;57.64;101127.41;4957976;28;97189;-81
2021/10/12 07:51:36;;;;;;;;;;;;;;;14.33;58.13;101121.59;4960436;28;98175;-81
2021/10/12 07:54:07;;;;;;;;;;;;;;;15.08;56.58;101117.22;4957939;28;100217;-81
2021/10/12 07:56:38;;;;;;;;;;;;;;;15.32;55.41;101107.16;4949719;28;96956;-79
2021/10/12 07:59:05;;;;;;;;;;;;;;;14.59;56.95;101113.31;4957397;28;97322;-84
2021/10/12 08:01:32;;;;;;;;;;;;;;;14.54;57.46;101112.69;4960488;28;98958;-83
2021/10/12 08:03:59;;;;;;;;;;;;;;;15.28;55.43;101105.59;4949859;28;99858;-83
2021/10/12 08:06:25;;;;;;;;;;;;;;;14.84;55.77;101107.72;4951452;28;96763;-82
2021/10/12 08:11:32;;;;;;;;;;;;;;;14.76;56.32;101107.22;4958623;28;98556;-83
2021/10/12 08:14:02;;;;;;;;;;;;;;;14.63;56.47;101106.94;4959200;28;97821;-83
2021/10/12 08:16:30;;;;;;;;;;;;;;;14.47;56.95;101110.38;4958962;28;96775;-82
2021/10/12 08:18:57;;;;;;;;;;;;;;;14.44;57.18;101108.69;4959966;28;97994;-81
2021/10/12 08:21:25;;;;;;;;;;;;;;;14.33;56.75;101102.97;4957965;28;101415;-82
2021/10/12 08:23:54;;;;;;;;;;;;;;;14.18;57.69;101103.66;4960392;28;100236;-82
2021/10/12 08:26:20;;;;;;;;;;;;;;;14.87;55.51;101102.25;4942754;28;97001;-84
2021/10/12 08:28:47;;;;;;;;;;;;;;;15.12;54.89;101104.59;4955282;28;96820;-82
2021/10/12 08:31:16;;;;;;;;;;;;;;;15.00;55.36;101106.06;4972164;28;97889;-83
2021/10/12 08:33:43;;;;;;;;;;;;;;;15.32;54.68;101096.50;4974893;28;98400;-84
2021/10/12 08:36:10;;;;;;;;;;;;;;;13.93;58.41;101109.19;4972809;28;95943;-83
2021/10/12 08:38:37;;;;;;;;;;;;;;;14.50;57.11;101103.13;4974006;28;96635;-82
2021/10/12 08:41:06;;;;;;;;;;;;;;;14.81;56.44;101109.66;4978545;28;97523;-82
2021/10/12 08:43:33;;;;;;;;;;;;;;;14.81;55.92;101096.38;4977766;28;97690;-80
2021/10/12 08:45:59;;;;;;;;;;;;;;;14.51;57.54;101098.63;4978028;28;96686;-81
2021/10/12 08:48:31;;;;;;;;;;;;;;;14.74;57.00;101099.31;4978428;28;96137;-82
2021/10/12 08:50:57;;;;;;;;;;;;;;;15.23;55.67;101091.63;4977203;28;97941;-83
2021/10/12 08:53:24;;;;;;;;;;;;;;;15.70;54.36;101086.59;4977685;28;99993;-80
2021/10/12 08:55:50;;;;;;;;;;;;;;;15.17;55.12;101083.94;4977006;28;96238;-83
2021/10/12 08:58:16;;;;;;;;;;;;;;;15.09;55.03;101088.78;4981590;28;96175;-82
2021/10/12 09:00:44;;;;;;;;;;;;;;;14.54;57.00;101091.41;4975161;28;97835;-80
2021/10/12 09:03:17;;;;;;;;;;;;;;;13.98;57.42;101080.63;4978302;28;96603;-82
2021/10/12 09:05:53;;;;;;;;;;;;;;;13.59;58.81;101088.53;4969823;28;96807;-84
2021/10/12 09:08:22;;;;;;;;;;;;;;;14.09;57.32;101080.16;4969581;28;96826;-83
2021/10/12 09:10:51;;;;;;;;;;;;;;;14.94;55.07;101084.19;4963841;28;101091;-84
2021/10/12 09:13:17;;;;;;;;;;;;;;;14.46;55.77;101093.53;4959368;28;97888;-83
2021/10/12 09:16:02;;;;;;;;;;;;;;;14.25;55.38;101083.84;4962098;28;97581;-82
2021/10/12 09:18:35;;;;;;;;;;;;;;;14.52;54.92;101081.75;4964986;28;96838;-83
2021/10/12 09:21:12;;;;;;;;;;;;;;;15.00;53.85;101068.81;4961615;28;97989;-82
2021/10/12 09:23:41;;;;;;;;;;;;;;;14.91;53.83;101069.22;4959620;28;100842;-82
2021/10/12 09:26:17;;;;;;;;;;;;;;;15.77;52.06;101072.03;4961256;28;97746;-82
2021/10/12 09:28:44;;;;;;;;;;;;;;;15.90;51.18;101062.44;4973555;28;96708;-82
2021/10/12 09:31:10;;;;;;;;;;;;;;;16.23;50.36;101057.13;4970310;28;100088;-83
2021/10/12 09:33:45;;;;;;;;;;;;;;;16.65;49.69;101056.63;4975635;28;98115;-82
2021/10/12 09:36:28;;;;;;;;;;;;;;;16.23;50.25;101054.47;4975004;28;96819;-82
2021/10/12 09:38:54;;;;;;;;;;;;;;;17.04;48.46;101058.84;4971230;28;96657;-83
2021/10/12 09:41:24;;;;;;;;;;;;;;;16.67;48.05;101052.06;4964908;28;98936;-83
2021/10/12 09:43:50;;;;;;;;;;;;;;;16.51;48.06;101047.63;4961043;28;98152;-82
2021/10/12 09:46:28;;;;;;;;;;;;;;;16.81;47.16;101050.41;4961567;28;97297;-83
2021/10/12 09:48:54;;;;;;;;;;;;;;;17.82;45.02;101036.44;4963165;28;96866;-83
2021/10/12 09:51:22;;;;;;;;;;;;;;;17.95;44.35;101039.22;4960674;28;98895;-83
2021/10/12 09:53:48;;;;;;;;;;;;;;;17.42;45.17;101043.28;4956587;28;99454;-83
2021/10/12 09:56:15;;;;;;;;;;;;;;;17.42;45.70;101042.41;4961835;28;96810;-83
2021/10/12 09:58:43;;;;;;;;;;;;;;;16.61;47.37;101032.84;4960727;28;96980;-82
2021/10/12 10:01:10;;;;;;;;;;;;;;;16.31;49.50;101033.59;4958178;28;98798;-83
2021/10/12 10:03:37;;;;;;;;;;;;;;;16.11;50.09;101040.94;4960996;28;97715;-82
2021/10/12 10:06:05;;;;;;;;;;;;;;;16.20;49.88;101043.97;4962158;28;96985;-82
2021/10/12 10:08:36;;;;;;;;;;;;;;;16.26;50.00;101033.00;4959487;28;97169;-82
2021/10/12 10:11:03;;;;;;;;;;;;;;;16.21;49.60;101035.00;4957328;28;97849;-82
2021/10/12 10:13:32;;;;;;;;;;;;;;;16.43;48.64;101036.53;4953035;28;98818;-81
2021/10/12 10:15:59;;;;;;;;;;;;;;;16.20;48.64;101033.31;4956737;28;96834;-81
2021/10/12 10:18:26;;;;;;;;;;;;;;;15.60;49.31;101032.09;4961688;28;97798;-84
2021/10/12 10:20:55;;;;;;;;;;;;;;;16.35;47.95;101029.78;4976237;28;97829;-85
2021/10/12 10:26:31;;;;;;;;;;;;;;;16.49;45.40;101023.69;4945581;28;97699;-84
2021/10/12 10:29:12;;;;;;;;;;;;;;;16.87;44.24;101018.91;4937133;28;97076;-83
2021/10/12 10:31:43;;;;;;;;;;;;;;;17.53;42.94;101013.22;4940826;28;99050;-82
2021/10/12 10:34:33;;;;;;;;;;;;;;;18.03;42.37;101017.34;4941912;28;100350;-81
2021/10/12 10:37:29;;;;;;;;;;;;;;;17.67;41.96;101023.97;4938945;28;96801;-82
2021/10/12 10:40:00;;;;;;;;;;;;;;;16.26;44.75;101018.78;4863049;28;96877;-83
2021/10/12 10:42:52;;;;;;;;;;;;;;;16.13;45.06;101026.59;4925201;28;97825;-81
2021/10/12 10:45:39;;;;;;;;;;;;;;;16.23;44.70;101014.47;4948791;28;97698;-81
2021/10/12 10:48:05;;;;;;;;;;;;;;;15.53;44.98;101018.22;4948287;28;99575;-83
2021/10/12 10:50:32;;;;;;;;;;;;;;;16.37;43.64;101011.06;4944467;28;97857;-80
2021/10/12 10:52:59;;;;;;;;;;;;;;;15.62;45.64;101008.06;4937913;28;98260;-82
2021/10/12 10:55:26;;;;;;;;;;;;;;;16.05;44.35;101006.63;4940980;28;97704;-81
2021/10/12 10:58:04;;;;;;;;;;;;;;;16.48;43.90;101002.44;4941543;28;96900;-82
2021/10/12 11:00:36;;;;;;;;;;;;;;;16.62;43.36;101007.91;4942321;28;97742;-83
2021/10/12 11:03:02;;;;;;;;;;;;;;;16.83;42.92;101005.84;4942495;28;98068;-83
2021/10/12 11:05:33;;;;;;;;;;;;;;;16.96;42.66;101002.38;4944444;28;99149;-81
2021/10/12 11:08:09;;;;;;;;;;;;;;;16.83;42.70;101000.50;4933002;28;96879;-81
2021/10/12 11:10:35;;;;;;;;;;;;;;;17.80;41.55;100997.38;4940630;28;96855;-82
2021/10/12 11:13:03;;;;;;;;;;;;;;;17.97;40.95;100996.34;4940468;28;99010;-80
2021/10/12 11:15:29;;;;;;;;;;;;;;;17.26;41.53;100990.88;4943885;28;99125;-79
2021/10/12 11:18:03;;;;;;;;;;;;;;;16.81;42.63;100981.03;4946544;28;96725;-82
2021/10/12 11:20:38;;;;;;;;;;;;;;;17.38;41.61;100992.78;4948191;28;96770;-83
2021/10/12 11:23:05;;;;;;;;;;;;;;;18.07;40.53;100981.44;4933577;28;96869;-82
2021/10/12 11:25:33;;;;;;;;;;;;;;;17.70;41.05;100973.03;4932251;28;99101;-81
2021/10/12 11:28:09;;;;;;;;;;;;;;;17.31;40.34;100975.41;4932343;28;97531;-83
2021/10/12 11:30:36;;;;;;;;;;;;;;;17.22;40.56;100982.16;4933933;28;98633;-81
2021/10/12 11:33:02;;;;;;;;;;;;;;;17.30;40.15;100985.25;4944680;28;99341;-83
2021/10/12 11:35:33;;;;;;;;;;;;;;;17.48;40.67;100975.25;4943895;28;99131;-83
2021/10/12 11:37:59;;;;;;;;;;;;;;;17.25;40.90;100976.66;4934027;28;96654;-82
2021/10/12 11:40:26;;;;;;;;;;;;;;;16.45;41.90;100978.63;4939468;28;97062;-80
2021/10/12 11:42:54;;;;;;;;;;;;;;;16.15;42.73;100974.03;4934191;28;98865;-81
2021/10/12 11:45:22;;;;;;;;;;;;;;;16.69;41.96;100974.59;4935792;28;98972;-81
2021/10/12 11:47:48;;;;;;;;;;;;;;;17.02;40.45;100971.78;4937358;28;96902;-81
2021/10/12 11:50:15;;;;;;;;;;;;;;;16.89;40.30;100976.13;4938729;28;96964;-81
2021/10/12 11:52:42;;;;;;;;;;;;;;;16.64;40.31;100969.53;4938610;28;99206;-81
2021/10/12 11:55:09;;;;;;;;;;;;;;;16.83;40.35;100966.66;4939260;28;98270;-82
2021/10/12 11:57:35;;;;;;;;;;;;;;;16.42;41.31;100966.31;4935222;28;97973;-83
2021/10/12 12:00:04;;;;;;;;;;;;;;;16.72;40.21;100959.28;4932201;28;97482;-81
2021/10/12 12:02:31;;;;;;;;;;;;;;;17.30;40.08;100963.00;4934972;28;101196;-82
2021/10/12 12:04:58;;;;;;;;;;;;;;;16.10;41.82;100952.09;4932020;28;97772;-82
2021/10/12 12:07:26;;;;;;;;;;;;;;;16.38;41.23;100950.56;4939593;28;96860;-84
2021/10/12 12:09:53;;;;;;;;;;;;;;;16.27;41.72;100957.38;4939655;28;98162;-83
2021/10/12 12:12:20;;;;;;;;;;;;;;;16.86;41.54;100954.97;4940915;28;99054;-83
2021/10/12 12:14:49;;;;;;;;;;;;;;;17.02;41.36;100950.44;4942316;28;98052;-83
2021/10/12 12:17:17;;;;;;;;;;;;;;;17.21;41.06;100951.06;4944745;28;96780;-81
2021/10/12 12:19:47;;;;;;;;;;;;;;;17.16;41.08;100946.94;4945050;28;96730;-82
2021/10/12 12:22:14;;;;;;;;;;;;;;;17.56;40.06;100959.63;4953484;28;97839;-84
2021/10/12 12:24:52;;;;;;;;;;;;;;;17.33;38.94;100955.66;4954394;28;97929;-83
2021/10/12 12:27:18;;;;;;;;;;;;;;;16.54;39.27;100949.59;4947817;28;96057;-82
2021/10/12 12:29:45;;;;;;;;;;;;;;;16.49;38.42;100950.81;4952201;28;98863;-82
2021/10/12 12:32:13;;;;;;;;;;;;;;;16.63;37.73;100940.25;4940175;28;97937;-82
2021/10/12 12:34:44;;;;;;;;;;;;;;;15.95;39.05;100950.28;4935012;28;97978;-83
2021/10/12 12:37:12;;;;;;;;;;;;;;;15.91;39.84;100951.41;5002228;22;97706;-82
2021/10/12 12:39:41;;;;;;;;;;;;;;;16.45;39.06;100944.81;4987892;28;96784;-82
2021/10/12 12:42:10;;;;;;;;;;;;;;;16.40;39.44;100954.03;4996031;28;97036;-82
2021/10/12 12:44:37;;;;;;;;;;;;;;;16.31;40.26;100953.59;4977952;28;99191;-82